sensor_id;sensor_type;location;lat;lon;timestamp;temperature;humidity
18287;DHT22;9269;50.838;12.094;2023-07-20T00:00:54;23.50;34.10
18287;DHT22;9269;50.838;12.094;2023-07-20T00:03:24;23.50;34.80
18287;DHT22;9269;50.838;12.094;2023-07-20T00:05:53;23.50;35.30
18287;DHT22;9269;50.838;12.094;2023-07-20T00:08:22;23.50;36.10
18287;DHT22;9269;50.838;12.094;2023-07-20T00:10:57;23.50;36.00
18287;DHT22;9269;50.838;12.094;2023-07-20T00:13:28;23.40;36.00
18287;DHT22;9269;50.838;12.094;2023-07-20T00:15:57;23.40;35.40
18287;DHT22;9269;50.838;12.094;2023-07-20T00:18:38;23.30;35.10
18287;DHT22;9269;50.838;12.094;2023-07-20T00:21:06;23.30;34.80
18287;DHT22;9269;50.838;12.094;2023-07-20T00:23:35;23.30;35.30
18287;DHT22;9269;50.838;12.094;2023-07-20T00:26:09;23.30;35.80
18287;DHT22;9269;50.838;12.094;2023-07-20T00:28:41;23.20;36.00
18287;DHT22;9269;50.838;12.094;2023-07-20T00:31:10;23.10;35.90
18287;DHT22;9269;50.838;12.094;2023-07-20T00:33:43;23.20;35.20
18287;DHT22;9269;50.838;12.094;2023-07-20T00:36:12;23.10;35.10
18287;DHT22;9269;50.838;12.094;2023-07-20T00:38:44;23.10;35.10
18287;DHT22;9269;50.838;12.094;2023-07-20T00:41:16;23.10;35.60
18287;DHT22;9269;50.838;12.094;2023-07-20T00:43:47;23.00;35.20
18287;DHT22;9269;50.838;12.094;2023-07-20T00:46:16;23.00;34.60
18287;DHT22;9269;50.838;12.094;2023-07-20T00:48:46;22.90;34.80
18287;DHT22;9269;50.838;12.094;2023-07-20T00:51:17;22.90;34.90
18287;DHT22;9269;50.838;12.094;2023-07-20T00:53:46;22.90;34.80
18287;DHT22;9269;50.838;12.094;2023-07-20T00:56:23;22.80;34.80
18287;DHT22;9269;50.838;12.094;2023-07-20T00:58:53;22.80;34.60
18287;DHT22;9269;50.838;12.094;2023-07-20T01:01:29;22.80;34.70
18287;DHT22;9269;50.838;12.094;2023-07-20T01:03:58;22.80;34.90
18287;DHT22;9269;50.838;12.094;2023-07-20T01:06:32;22.80;35.40
18287;DHT22;9269;50.838;12.094;2023-07-20T01:09:28;22.70;35.40
18287;DHT22;9269;50.838;12.094;2023-07-20T01:12:09;22.70;35.20
18287;DHT22;9269;50.838;12.094;2023-07-20T01:14:43;22.70;35.70
18287;DHT22;9269;50.838;12.094;2023-07-20T01:17:14;22.60;36.30
18287;DHT22;9269;50.838;12.094;2023-07-20T01:19:44;22.70;36.10
18287;DHT22;9269;50.838;12.094;2023-07-20T01:22:21;22.60;36.10
18287;DHT22;9269;50.838;12.094;2023-07-20T01:25:12;22.60;36.10
18287;DHT22;9269;50.838;12.094;2023-07-20T01:31:21;22.50;36.30
18287;DHT22;9269;50.838;12.094;2023-07-20T01:34:12;22.50;36.30
18287;DHT22;9269;50.838;12.094;2023-07-20T01:37:03;22.50;36.00
18287;DHT22;9269;50.838;12.094;2023-07-20T01:39:53;22.50;36.10
18287;DHT22;9269;50.838;12.094;2023-07-20T01:42:29;22.40;36.10
18287;DHT22;9269;50.838;12.094;2023-07-20T01:45:04;22.30;36.00
18287;DHT22;9269;50.838;12.094;2023-07-20T01:47:36;22.30;36.20
18287;DHT22;9269;50.838;12.094;2023-07-20T01:50:07;22.30;35.90
18287;DHT22;9269;50.838;12.094;2023-07-20T01:52:37;22.30;35.90
18287;DHT22;9269;50.838;12.094;2023-07-20T01:55:16;22.30;35.80
18287;DHT22;9269;50.838;12.094;2023-07-20T01:57:45;22.30;36.20
18287;DHT22;9269;50.838;12.094;2023-07-20T02:00:14;22.30;36.60
18287;DHT22;9269;50.838;12.094;2023-07-20T02:02:44;22.20;36.20
18287;DHT22;9269;50.838;12.094;2023-07-20T02:05:13;22.20;36.00
18287;DHT22;9269;50.838;12.094;2023-07-20T02:07:41;22.20;36.20
18287;DHT22;9269;50.838;12.094;2023-07-20T02:10:10;22.20;36.30
18287;DHT22;9269;50.838;12.094;2023-07-20T02:12:39;22.10;36.40
18287;DHT22;9269;50.838;12.094;2023-07-20T02:15:08;22.10;36.90
18287;DHT22;9269;50.838;12.094;2023-07-20T02:17:37;22.10;37.40
18287;DHT22;9269;50.838;12.094;2023-07-20T02:20:10;22.20;37.00
18287;DHT22;9269;50.838;12.094;2023-07-20T02:22:39;22.10;36.90
18287;DHT22;9269;50.838;12.094;2023-07-20T02:25:09;22.10;36.60
18287;DHT22;9269;50.838;12.094;2023-07-20T02:27:38;22.00;36.70
18287;DHT22;9269;50.838;12.094;2023-07-20T02:30:07;22.00;36.70
18287;DHT22;9269;50.838;12.094;2023-07-20T02:32:37;22.00;36.70
18287;DHT22;9269;50.838;12.094;2023-07-20T02:35:07;21.90;36.70
18287;DHT22;9269;50.838;12.094;2023-07-20T02:37:37;22.00;36.50
18287;DHT22;9269;50.838;12.094;2023-07-20T02:40:06;22.00;36.40
18287;DHT22;9269;50.838;12.094;2023-07-20T02:42:36;22.00;36.50
18287;DHT22;9269;50.838;12.094;2023-07-20T02:45:05;21.90;36.80
18287;DHT22;9269;50.838;12.094;2023-07-20T02:47:34;21.80;36.50
18287;DHT22;9269;50.838;12.094;2023-07-20T02:50:05;21.90;36.70
18287;DHT22;9269;50.838;12.094;2023-07-20T02:52:34;21.90;36.80
18287;DHT22;9269;50.838;12.094;2023-07-20T02:55:04;21.90;36.30
18287;DHT22;9269;50.838;12.094;2023-07-20T02:57:33;21.90;37.00
18287;DHT22;9269;50.838;12.094;2023-07-20T03:00:03;22.00;37.20
18287;DHT22;9269;50.838;12.094;2023-07-20T03:02:32;21.90;37.60
18287;DHT22;9269;50.838;12.094;2023-07-20T03:05:01;22.00;38.20
18287;DHT22;9269;50.838;12.094;2023-07-20T03:07:33;21.90;37.40
18287;DHT22;9269;50.838;12.094;2023-07-20T03:10:01;21.90;36.80
18287;DHT22;9269;50.838;12.094;2023-07-20T03:12:32;21.90;36.80
18287;DHT22;9269;50.838;12.094;2023-07-20T03:15:03;21.80;37.00
18287;DHT22;9269;50.838;12.094;2023-07-20T03:17:32;21.80;37.40
18287;DHT22;9269;50.838;12.094;2023-07-20T03:20:01;21.90;37.40
18287;DHT22;9269;50.838;12.094;2023-07-20T03:22:30;21.90;37.10
18287;DHT22;9269;50.838;12.094;2023-07-20T03:24:59;21.90;37.00
18287;DHT22;9269;50.838;12.094;2023-07-20T03:27:28;21.90;37.10
18287;DHT22;9269;50.838;12.094;2023-07-20T03:29:58;21.90;36.70
18287;DHT22;9269;50.838;12.094;2023-07-20T03:32:27;21.90;36.80
18287;DHT22;9269;50.838;12.094;2023-07-20T03:34:56;21.90;36.60
18287;DHT22;9269;50.838;12.094;2023-07-20T03:37:24;21.90;36.50
18287;DHT22;9269;50.838;12.094;2023-07-20T03:39:52;21.90;37.00
18287;DHT22;9269;50.838;12.094;2023-07-20T03:42:21;21.90;36.70
18287;DHT22;9269;50.838;12.094;2023-07-20T03:44:49;21.80;36.70
18287;DHT22;9269;50.838;12.094;2023-07-20T03:47:19;21.80;36.60
18287;DHT22;9269;50.838;12.094;2023-07-20T03:49:49;21.90;36.90
18287;DHT22;9269;50.838;12.094;2023-07-20T03:52:17;21.90;37.00
18287;DHT22;9269;50.838;12.094;2023-07-20T03:54:46;21.80;37.50
18287;DHT22;9269;50.838;12.094;2023-07-20T03:57:14;21.90;37.90
18287;DHT22;9269;50.838;12.094;2023-07-20T03:59:45;21.80;37.50
18287;DHT22;9269;50.838;12.094;2023-07-20T04:02:13;21.90;37.70
18287;DHT22;9269;50.838;12.094;2023-07-20T04:04:43;21.90;37.80
18287;DHT22;9269;50.838;12.094;2023-07-20T04:07:12;21.90;37.80
18287;DHT22;9269;50.838;12.094;2023-07-20T04:09:41;21.90;37.80
18287;DHT22;9269;50.838;12.094;2023-07-20T04:12:09;21.90;37.50
18287;DHT22;9269;50.838;12.094;2023-07-20T04:14:38;21.90;37.80
18287;DHT22;9269;50.838;12.094;2023-07-20T04:17:06;21.90;37.30
18287;DHT22;9269;50.838;12.094;2023-07-20T04:19:35;21.90;37.50
18287;DHT22;9269;50.838;12.094;2023-07-20T04:22:05;22.00;37.90
18287;DHT22;9269;50.838;12.094;2023-07-20T04:24:34;22.00;37.80
18287;DHT22;9269;50.838;12.094;2023-07-20T04:27:03;22.00;37.60
18287;DHT22;9269;50.838;12.094;2023-07-20T04:29:32;21.90;38.10
18287;DHT22;9269;50.838;12.094;2023-07-20T04:32:01;22.00;38.50
18287;DHT22;9269;50.838;12.094;2023-07-20T04:34:30;22.00;38.40
18287;DHT22;9269;50.838;12.094;2023-07-20T04:36:59;22.00;38.30
18287;DHT22;9269;50.838;12.094;2023-07-20T04:39:29;22.00;38.00
18287;DHT22;9269;50.838;12.094;2023-07-20T04:41:58;22.00;38.20
18287;DHT22;9269;50.838;12.094;2023-07-20T04:44:27;22.10;38.30
18287;DHT22;9269;50.838;12.094;2023-07-20T04:46:55;22.10;38.40
18287;DHT22;9269;50.838;12.094;2023-07-20T04:49:24;22.10;37.90
18287;DHT22;9269;50.838;12.094;2023-07-20T04:51:53;22.10;37.80
18287;DHT22;9269;50.838;12.094;2023-07-20T04:54:23;22.20;37.60
18287;DHT22;9269;50.838;12.094;2023-07-20T04:56:53;22.10;37.60
18287;DHT22;9269;50.838;12.094;2023-07-20T04:59:21;22.20;37.30
18287;DHT22;9269;50.838;12.094;2023-07-20T05:01:50;22.20;37.50
18287;DHT22;9269;50.838;12.094;2023-07-20T05:04:18;22.30;37.20
18287;DHT22;9269;50.838;12.094;2023-07-20T05:06:48;22.30;37.50
18287;DHT22;9269;50.838;12.094;2023-07-20T05:09:17;22.40;37.70
18287;DHT22;9269;50.838;12.094;2023-07-20T05:11:49;22.40;37.60
18287;DHT22;9269;50.838;12.094;2023-07-20T05:14:18;22.50;37.60
18287;DHT22;9269;50.838;12.094;2023-07-20T05:16:47;22.40;37.60
18287;DHT22;9269;50.838;12.094;2023-07-20T05:19:16;22.50;37.20
18287;DHT22;9269;50.838;12.094;2023-07-20T05:21:44;22.50;37.60
18287;DHT22;9269;50.838;12.094;2023-07-20T05:24:12;22.60;38.10
18287;DHT22;9269;50.838;12.094;2023-07-20T05:26:41;22.60;38.10
18287;DHT22;9269;50.838;12.094;2023-07-20T05:29:09;22.60;38.20
18287;DHT22;9269;50.838;12.094;2023-07-20T05:31:39;22.60;38.10
18287;DHT22;9269;50.838;12.094;2023-07-20T05:34:08;22.70;38.00
18287;DHT22;9269;50.838;12.094;2023-07-20T05:36:36;22.70;37.80
18287;DHT22;9269;50.838;12.094;2023-07-20T05:39:05;22.80;37.70
18287;DHT22;9269;50.838;12.094;2023-07-20T05:41:34;22.80;37.30
18287;DHT22;9269;50.838;12.094;2023-07-20T05:44:03;22.80;37.50
18287;DHT22;9269;50.838;12.094;2023-07-20T05:46:34;22.80;37.30
18287;DHT22;9269;50.838;12.094;2023-07-20T05:49:22;22.80;37.20
18287;DHT22;9269;50.838;12.094;2023-07-20T05:51:52;22.90;36.80
18287;DHT22;9269;50.838;12.094;2023-07-20T05:54:21;22.90;36.80
18287;DHT22;9269;50.838;12.094;2023-07-20T05:56:51;23.00;37.00
18287;DHT22;9269;50.838;12.094;2023-07-20T05:59:20;22.90;37.60
18287;DHT22;9269;50.838;12.094;2023-07-20T06:01:48;22.90;37.40
18287;DHT22;9269;50.838;12.094;2023-07-20T06:04:17;23.00;37.30
18287;DHT22;9269;50.838;12.094;2023-07-20T06:06:47;22.90;37.10
18287;DHT22;9269;50.838;12.094;2023-07-20T06:09:15;23.00;37.10
18287;DHT22;9269;50.838;12.094;2023-07-20T06:11:44;23.00;37.30
18287;DHT22;9269;50.838;12.094;2023-07-20T06:14:12;23.20;37.20
18287;DHT22;9269;50.838;12.094;2023-07-20T06:16:41;23.10;37.20
18287;DHT22;9269;50.838;12.094;2023-07-20T06:19:09;23.20;37.30
18287;DHT22;9269;50.838;12.094;2023-07-20T06:21:39;23.30;36.80
18287;DHT22;9269;50.838;12.094;2023-07-20T06:24:09;23.30;36.90
18287;DHT22;9269;50.838;12.094;2023-07-20T06:26:37;23.30;37.30
18287;DHT22;9269;50.838;12.094;2023-07-20T06:29:06;23.30;37.50
18287;DHT22;9269;50.838;12.094;2023-07-20T06:31:36;23.40;37.00
18287;DHT22;9269;50.838;12.094;2023-07-20T06:34:08;23.50;37.00
18287;DHT22;9269;50.838;12.094;2023-07-20T06:36:36;23.40;37.60
18287;DHT22;9269;50.838;12.094;2023-07-20T06:39:08;23.50;37.40
18287;DHT22;9269;50.838;12.094;2023-07-20T06:41:40;23.60;37.60
18287;DHT22;9269;50.838;12.094;2023-07-20T06:44:09;23.60;37.00
18287;DHT22;9269;50.838;12.094;2023-07-20T06:46:38;23.70;36.10
18287;DHT22;9269;50.838;12.094;2023-07-20T06:49:06;23.70;35.90
18287;DHT22;9269;50.838;12.094;2023-07-20T06:51:39;23.70;35.60
18287;DHT22;9269;50.838;12.094;2023-07-20T06:54:11;23.90;35.40
18287;DHT22;9269;50.838;12.094;2023-07-20T06:56:42;23.90;35.70
18287;DHT22;9269;50.838;12.094;2023-07-20T06:59:13;24.00;35.30
18287;DHT22;9269;50.838;12.094;2023-07-20T07:01:51;24.00;35.70
18287;DHT22;9269;50.838;12.094;2023-07-20T07:04:20;24.00;35.90
18287;DHT22;9269;50.838;12.094;2023-07-20T07:06:50;24.00;35.40
18287;DHT22;9269;50.838;12.094;2023-07-20T07:09:20;24.10;35.60
18287;DHT22;9269;50.838;12.094;2023-07-20T07:11:48;24.10;35.10
18287;DHT22;9269;50.838;12.094;2023-07-20T07:14:17;24.30;35.10
18287;DHT22;9269;50.838;12.094;2023-07-20T07:16:47;24.40;34.80
18287;DHT22;9269;50.838;12.094;2023-07-20T07:19:18;24.40;35.10
18287;DHT22;9269;50.838;12.094;2023-07-20T07:21:46;24.50;34.60
18287;DHT22;9269;50.838;12.094;2023-07-20T07:24:15;24.50;34.60
18287;DHT22;9269;50.838;12.094;2023-07-20T07:26:49;24.60;34.60
18287;DHT22;9269;50.838;12.094;2023-07-20T07:29:18;24.60;34.70
18287;DHT22;9269;50.838;12.094;2023-07-20T07:31:47;24.50;34.60
18287;DHT22;9269;50.838;12.094;2023-07-20T07:34:16;24.50;34.40
18287;DHT22;9269;50.838;12.094;2023-07-20T07:36:45;24.60;34.30
18287;DHT22;9269;50.838;12.094;2023-07-20T07:39:14;24.70;34.30
18287;DHT22;9269;50.838;12.094;2023-07-20T07:41:46;24.90;33.60
18287;DHT22;9269;50.838;12.094;2023-07-20T07:44:15;25.00;33.60
18287;DHT22;9269;50.838;12.094;2023-07-20T07:46:44;25.30;33.50
18287;DHT22;9269;50.838;12.094;2023-07-20T07:49:13;25.40;33.60
18287;DHT22;9269;50.838;12.094;2023-07-20T07:51:42;25.40;33.20
18287;DHT22;9269;50.838;12.094;2023-07-20T07:54:10;25.40;33.20
18287;DHT22;9269;50.838;12.094;2023-07-20T07:56:39;25.40;32.90
18287;DHT22;9269;50.838;12.094;2023-07-20T07:59:08;25.40;32.90
18287;DHT22;9269;50.838;12.094;2023-07-20T08:01:37;25.40;32.70
18287;DHT22;9269;50.838;12.094;2023-07-20T08:04:06;25.50;32.20
18287;DHT22;9269;50.838;12.094;2023-07-20T08:06:39;25.70;32.20
18287;DHT22;9269;50.838;12.094;2023-07-20T08:09:07;25.70;31.60
18287;DHT22;9269;50.838;12.094;2023-07-20T08:11:36;25.70;32.10
18287;DHT22;9269;50.838;12.094;2023-07-20T08:14:07;25.80;31.50
18287;DHT22;9269;50.838;12.094;2023-07-20T08:16:37;25.80;32.00
18287;DHT22;9269;50.838;12.094;2023-07-20T08:19:06;25.90;31.60
18287;DHT22;9269;50.838;12.094;2023-07-20T08:21:34;26.00;31.50
18287;DHT22;9269;50.838;12.094;2023-07-20T08:24:03;26.00;31.40
18287;DHT22;9269;50.838;12.094;2023-07-20T08:26:31;25.90;30.90
18287;DHT22;9269;50.838;12.094;2023-07-20T08:29:03;25.80;31.10
18287;DHT22;9269;50.838;12.094;2023-07-20T08:31:31;25.70;31.00
18287;DHT22;9269;50.838;12.094;2023-07-20T08:34:01;25.70;31.40
18287;DHT22;9269;50.838;12.094;2023-07-20T08:36:42;26.00;31.20
18287;DHT22;9269;50.838;12.094;2023-07-20T08:39:10;26.30;30.80
18287;DHT22;9269;50.838;12.094;2023-07-20T08:41:39;26.60;29.70
18287;DHT22;9269;50.838;12.094;2023-07-20T08:44:10;26.60;29.50
18287;DHT22;9269;50.838;12.094;2023-07-20T08:46:39;26.70;29.40
18287;DHT22;9269;50.838;12.094;2023-07-20T08:49:09;27.00;29.40
18287;DHT22;9269;50.838;12.094;2023-07-20T08:51:39;27.10;28.70
18287;DHT22;9269;50.838;12.094;2023-07-20T08:54:09;27.20;28.70
18287;DHT22;9269;50.838;12.094;2023-07-20T08:56:40;27.20;28.40
18287;DHT22;9269;50.838;12.094;2023-07-20T08:59:09;27.10;28.30
18287;DHT22;9269;50.838;12.094;2023-07-20T09:01:39;26.90;28.30
18287;DHT22;9269;50.838;12.094;2023-07-20T09:04:10;26.70;28.40
18287;DHT22;9269;50.838;12.094;2023-07-20T09:06:40;26.50;28.60
18287;DHT22;9269;50.838;12.094;2023-07-20T09:09:12;26.50;28.30
18287;DHT22;9269;50.838;12.094;2023-07-20T09:11:40;26.70;28.20
18287;DHT22;9269;50.838;12.094;2023-07-20T09:14:09;26.80;28.20
18287;DHT22;9269;50.838;12.094;2023-07-20T09:16:48;27.20;27.70
18287;DHT22;9269;50.838;12.094;2023-07-20T09:19:19;27.40;27.70
18287;DHT22;9269;50.838;12.094;2023-07-20T09:21:48;27.60;27.00
18287;DHT22;9269;50.838;12.094;2023-07-20T09:24:19;27.70;27.30
18287;DHT22;9269;50.838;12.094;2023-07-20T09:26:48;27.70;26.90
18287;DHT22;9269;50.838;12.094;2023-07-20T09:29:18;27.70;27.20
18287;DHT22;9269;50.838;12.094;2023-07-20T09:31:58;27.60;27.00
18287;DHT22;9269;50.838;12.094;2023-07-20T09:34:30;27.50;26.70
18287;DHT22;9269;50.838;12.094;2023-07-20T09:37:02;27.30;26.60
18287;DHT22;9269;50.838;12.094;2023-07-20T09:39:32;27.10;27.20
18287;DHT22;9269;50.838;12.094;2023-07-20T09:42:01;26.90;26.70
18287;DHT22;9269;50.838;12.094;2023-07-20T09:44:34;26.90;26.40
18287;DHT22;9269;50.838;12.094;2023-07-20T09:47:07;26.90;26.80
18287;DHT22;9269;50.838;12.094;2023-07-20T09:49:40;26.80;26.40
18287;DHT22;9269;50.838;12.094;2023-07-20T09:52:12;26.80;27.00
18287;DHT22;9269;50.838;12.094;2023-07-20T09:54:44;26.90;26.50
18287;DHT22;9269;50.838;12.094;2023-07-20T09:57:13;26.90;26.70
18287;DHT22;9269;50.838;12.094;2023-07-20T09:59:42;26.90;26.60
18287;DHT22;9269;50.838;12.094;2023-07-20T10:02:19;26.90;26.70
18287;DHT22;9269;50.838;12.094;2023-07-20T10:04:52;26.90;26.60
18287;DHT22;9269;50.838;12.094;2023-07-20T10:07:22;26.80;26.40
18287;DHT22;9269;50.838;12.094;2023-07-20T10:09:53;26.80;26.60
18287;DHT22;9269;50.838;12.094;2023-07-20T10:12:23;26.70;26.60
18287;DHT22;9269;50.838;12.094;2023-07-20T10:15:02;26.60;26.50
18287;DHT22;9269;50.838;12.094;2023-07-20T10:17:35;26.60;26.40
18287;DHT22;9269;50.838;12.094;2023-07-20T10:20:07;26.60;26.40
18287;DHT22;9269;50.838;12.094;2023-07-20T10:22:38;26.40;26.70
18287;DHT22;9269;50.838;12.094;2023-07-20T10:25:09;26.50;26.40
18287;DHT22;9269;50.838;12.094;2023-07-20T10:27:38;26.40;26.50
18287;DHT22;9269;50.838;12.094;2023-07-20T10:30:07;26.40;26.50
18287;DHT22;9269;50.838;12.094;2023-07-20T10:32:37;26.40;26.60
18287;DHT22;9269;50.838;12.094;2023-07-20T10:35:13;26.60;26.30
18287;DHT22;9269;50.838;12.094;2023-07-20T10:37:47;26.90;26.30
18287;DHT22;9269;50.838;12.094;2023-07-20T10:43:05;27.70;25.10
18287;DHT22;9269;50.838;12.094;2023-07-20T10:45:48;28.00;25.00
18287;DHT22;9269;50.838;12.094;2023-07-20T10:48:19;28.20;24.60
18287;DHT22;9269;50.838;12.094;2023-07-20T10:51:10;28.50;23.90
18287;DHT22;9269;50.838;12.094;2023-07-20T10:53:39;28.60;23.90
18287;DHT22;9269;50.838;12.094;2023-07-20T10:56:12;28.60;23.70
18287;DHT22;9269;50.838;12.094;2023-07-20T10:58:41;28.50;24.00
18287;DHT22;9269;50.838;12.094;2023-07-20T11:01:13;28.20;23.40
18287;DHT22;9269;50.838;12.094;2023-07-20T11:03:43;27.70;25.00
18287;DHT22;9269;50.838;12.094;2023-07-20T11:06:32;27.30;26.00
18287;DHT22;9269;50.838;12.094;2023-07-20T11:09:07;26.80;28.10
18287;DHT22;9269;50.838;12.094;2023-07-20T11:11:41;26.50;28.70
18287;DHT22;9269;50.838;12.094;2023-07-20T11:14:21;26.30;30.00
18287;DHT22;9269;50.838;12.094;2023-07-20T11:16:56;26.10;30.80
18287;DHT22;9269;50.838;12.094;2023-07-20T11:19:41;26.10;30.80
18287;DHT22;9269;50.838;12.094;2023-07-20T11:22:16;26.00;31.50
18287;DHT22;9269;50.838;12.094;2023-07-20T11:24:45;26.00;31.80
18287;DHT22;9269;50.838;12.094;2023-07-20T11:27:16;25.90;32.20
18287;DHT22;9269;50.838;12.094;2023-07-20T11:29:46;25.90;31.70
18287;DHT22;9269;50.838;12.094;2023-07-20T11:32:20;25.90;32.40
18287;DHT22;9269;50.838;12.094;2023-07-20T11:34:49;25.90;32.20
18287;DHT22;9269;50.838;12.094;2023-07-20T11:37:20;25.90;31.90
18287;DHT22;9269;50.838;12.094;2023-07-20T11:39:48;26.00;31.90
18287;DHT22;9269;50.838;12.094;2023-07-20T11:42:19;26.00;31.90
18287;DHT22;9269;50.838;12.094;2023-07-20T11:44:52;26.00;32.50
18287;DHT22;9269;50.838;12.094;2023-07-20T11:47:20;26.00;31.90
18287;DHT22;9269;50.838;12.094;2023-07-20T11:49:49;26.00;31.70
18287;DHT22;9269;50.838;12.094;2023-07-20T11:52:23;26.00;32.00
18287;DHT22;9269;50.838;12.094;2023-07-20T11:54:52;26.00;31.50
18287;DHT22;9269;50.838;12.094;2023-07-20T11:57:21;26.10;31.10
18287;DHT22;9269;50.838;12.094;2023-07-20T11:59:53;26.00;31.40
18287;DHT22;9269;50.838;12.094;2023-07-20T12:02:27;26.30;31.60
18287;DHT22;9269;50.838;12.094;2023-07-20T12:04:56;26.60;30.40
18287;DHT22;9269;50.838;12.094;2023-07-20T12:07:28;26.80;30.10
18287;DHT22;9269;50.838;12.094;2023-07-20T12:10:03;27.10;30.00
18287;DHT22;9269;50.838;12.094;2023-07-20T12:12:32;27.30;29.40
18287;DHT22;9269;50.838;12.094;2023-07-20T12:15:14;27.40;29.30
18287;DHT22;9269;50.838;12.094;2023-07-20T12:17:46;27.50;28.70
18287;DHT22;9269;50.838;12.094;2023-07-20T12:20:25;27.60;27.90
18287;DHT22;9269;50.838;12.094;2023-07-20T12:22:59;27.70;27.40
18287;DHT22;9269;50.838;12.094;2023-07-20T12:25:34;27.80;26.60
18287;DHT22;9269;50.838;12.094;2023-07-20T12:28:05;27.80;26.00
18287;DHT22;9269;50.838;12.094;2023-07-20T12:30:34;27.60;25.70
18287;DHT22;9269;50.838;12.094;2023-07-20T12:33:03;27.50;25.30
18287;DHT22;9269;50.838;12.094;2023-07-20T12:35:33;27.40;25.80
18287;DHT22;9269;50.838;12.094;2023-07-20T12:38:03;27.30;25.90
18287;DHT22;9269;50.838;12.094;2023-07-20T12:40:34;27.20;26.10
18287;DHT22;9269;50.838;12.094;2023-07-20T12:43:03;27.00;25.90
18287;DHT22;9269;50.838;12.094;2023-07-20T12:45:32;27.10;25.90
18287;DHT22;9269;50.838;12.094;2023-07-20T12:48:01;27.30;26.10
18287;DHT22;9269;50.838;12.094;2023-07-20T12:50:29;27.50;26.00
18287;DHT22;9269;50.838;12.094;2023-07-20T12:52:59;27.60;26.00
18287;DHT22;9269;50.838;12.094;2023-07-20T12:55:32;27.70;26.10
18287;DHT22;9269;50.838;12.094;2023-07-20T12:58:01;27.80;25.70
18287;DHT22;9269;50.838;12.094;2023-07-20T13:00:30;27.80;25.90
18287;DHT22;9269;50.838;12.094;2023-07-20T13:03:01;27.70;26.10
18287;DHT22;9269;50.838;12.094;2023-07-20T13:05:36;27.60;25.70
18287;DHT22;9269;50.838;12.094;2023-07-20T13:08:07;27.50;25.30
18287;DHT22;9269;50.838;12.094;2023-07-20T13:10:40;27.40;25.30
18287;DHT22;9269;50.838;12.094;2023-07-20T13:13:09;27.30;25.30
18287;DHT22;9269;50.838;12.094;2023-07-20T13:15:42;27.20;25.10
18287;DHT22;9269;50.838;12.094;2023-07-20T13:18:11;27.10;25.40
18287;DHT22;9269;50.838;12.094;2023-07-20T13:20:40;26.80;25.30
18287;DHT22;9269;50.838;12.094;2023-07-20T13:23:09;26.80;25.30
18287;DHT22;9269;50.838;12.094;2023-07-20T13:25:37;26.80;25.50
18287;DHT22;9269;50.838;12.094;2023-07-20T13:28:08;27.10;24.90
18287;DHT22;9269;50.838;12.094;2023-07-20T13:30:37;27.20;25.00
18287;DHT22;9269;50.838;12.094;2023-07-20T13:33:09;27.10;24.80
18287;DHT22;9269;50.838;12.094;2023-07-20T13:35:44;27.10;24.80
18287;DHT22;9269;50.838;12.094;2023-07-20T13:38:16;27.10;24.60
18287;DHT22;9269;50.838;12.094;2023-07-20T13:40:45;27.20;24.80
18287;DHT22;9269;50.838;12.094;2023-07-20T13:43:15;27.20;24.40
18287;DHT22;9269;50.838;12.094;2023-07-20T13:45:43;27.30;24.50
18287;DHT22;9269;50.838;12.094;2023-07-20T13:48:12;27.40;24.10
18287;DHT22;9269;50.838;12.094;2023-07-20T13:50:44;27.50;24.40
18287;DHT22;9269;50.838;12.094;2023-07-20T13:53:27;27.40;24.30
18287;DHT22;9269;50.838;12.094;2023-07-20T13:55:58;27.50;24.20
18287;DHT22;9269;50.838;12.094;2023-07-20T13:58:32;27.50;24.40
18287;DHT22;9269;50.838;12.094;2023-07-20T14:01:00;27.40;24.40
18287;DHT22;9269;50.838;12.094;2023-07-20T14:03:29;27.50;24.60
18287;DHT22;9269;50.838;12.094;2023-07-20T14:05:57;27.40;24.70
18287;DHT22;9269;50.838;12.094;2023-07-20T14:08:31;27.50;24.70
18287;DHT22;9269;50.838;12.094;2023-07-20T14:11:01;27.50;24.30
18287;DHT22;9269;50.838;12.094;2023-07-20T14:13:34;27.40;24.80
18287;DHT22;9269;50.838;12.094;2023-07-20T14:16:16;27.30;24.30
18287;DHT22;9269;50.838;12.094;2023-07-20T14:18:46;27.30;24.40
18287;DHT22;9269;50.838;12.094;2023-07-20T14:21:19;27.20;24.60
18287;DHT22;9269;50.838;12.094;2023-07-20T14:23:51;27.20;24.70
18287;DHT22;9269;50.838;12.094;2023-07-20T14:26:30;27.10;24.60
18287;DHT22;9269;50.838;12.094;2023-07-20T14:29:02;27.20;24.60
18287;DHT22;9269;50.838;12.094;2023-07-20T14:31:30;27.10;24.20
18287;DHT22;9269;50.838;12.094;2023-07-20T14:33:59;27.10;24.20
18287;DHT22;9269;50.838;12.094;2023-07-20T14:36:33;27.10;24.20
18287;DHT22;9269;50.838;12.094;2023-07-20T14:39:02;27.20;24.00
18287;DHT22;9269;50.838;12.094;2023-07-20T14:41:33;27.30;23.50
18287;DHT22;9269;50.838;12.094;2023-07-20T14:44:04;27.20;24.20
18287;DHT22;9269;50.838;12.094;2023-07-20T14:46:33;27.20;23.50
18287;DHT22;9269;50.838;12.094;2023-07-20T14:49:01;27.20;23.50
18287;DHT22;9269;50.838;12.094;2023-07-20T14:51:33;27.00;22.60
18287;DHT22;9269;50.838;12.094;2023-07-20T14:54:06;27.00;22.30
18287;DHT22;9269;50.838;12.094;2023-07-20T14:56:35;27.10;22.30
18287;DHT22;9269;50.838;12.094;2023-07-20T14:59:06;27.00;22.30
18287;DHT22;9269;50.838;12.094;2023-07-20T15:01:39;27.10;22.20
18287;DHT22;9269;50.838;12.094;2023-07-20T15:04:08;27.20;22.30
18287;DHT22;9269;50.838;12.094;2023-07-20T15:06:39;27.20;21.40
18287;DHT22;9269;50.838;12.094;2023-07-20T15:09:08;27.20;21.90
18287;DHT22;9269;50.838;12.094;2023-07-20T15:11:39;27.40;21.70
18287;DHT22;9269;50.838;12.094;2023-07-20T15:14:10;27.40;21.80
18287;DHT22;9269;50.838;12.094;2023-07-20T15:16:39;27.40;21.40
18287;DHT22;9269;50.838;12.094;2023-07-20T15:19:09;27.40;21.70
18287;DHT22;9269;50.838;12.094;2023-07-20T15:21:41;27.40;22.10
18287;DHT22;9269;50.838;12.094;2023-07-20T15:24:09;27.30;22.10
18287;DHT22;9269;50.838;12.094;2023-07-20T15:26:48;27.30;22.50
18287;DHT22;9269;50.838;12.094;2023-07-20T15:29:22;27.20;22.70
18287;DHT22;9269;50.838;12.094;2023-07-20T15:31:54;27.20;22.90
18287;DHT22;9269;50.838;12.094;2023-07-20T15:34:26;27.00;22.60
18287;DHT22;9269;50.838;12.094;2023-07-20T15:36:56;26.90;22.50
18287;DHT22;9269;50.838;12.094;2023-07-20T15:39:24;26.90;22.40
18287;DHT22;9269;50.838;12.094;2023-07-20T15:41:55;27.10;22.50
18287;DHT22;9269;50.838;12.094;2023-07-20T15:44:25;27.20;22.90
18287;DHT22;9269;50.838;12.094;2023-07-20T15:46:53;27.30;22.00
18287;DHT22;9269;50.838;12.094;2023-07-20T15:49:26;27.40;22.40
18287;DHT22;9269;50.838;12.094;2023-07-20T15:52:19;27.40;22.50
18287;DHT22;9269;50.838;12.094;2023-07-20T15:54:47;27.30;22.40
18287;DHT22;9269;50.838;12.094;2023-07-20T15:57:15;27.20;22.30
18287;DHT22;9269;50.838;12.094;2023-07-20T15:59:46;27.30;22.20